createdAt,value
2023-02-15T00:00:09.331Z,99.90
2023-02-15T00:02:36.253Z,99.90
2023-02-15T00:05:03.686Z,99.90
2023-02-15T00:07:30.644Z,99.90
2023-02-15T00:09:57.558Z,99.90
2023-02-15T00:12:24.538Z,99.90
2023-02-15T00:14:51.500Z,99.90
2023-02-15T00:17:18.606Z,99.90
2023-02-15T00:19:45.454Z,99.90
2023-02-15T00:22:12.312Z,99.90
2023-02-15T00:24:39.313Z,99.90
2023-02-15T00:27:06.274Z,99.90
2023-02-15T00:29:36.490Z,99.90
2023-02-15T00:32:03.584Z,99.90
2023-02-15T00:34:35.294Z,99.90
2023-02-15T00:37:05.706Z,99.90
2023-02-15T00:39:37.315Z,99.90
2023-02-15T00:42:07.635Z,99.90
2023-02-15T00:44:36.767Z,99.90
2023-02-15T00:47:04.885Z,99.90
2023-02-15T00:49:33.667Z,99.90
2023-02-15T00:52:01.842Z,99.90
2023-02-15T00:54:28.945Z,99.90
2023-02-15T00:56:56.824Z,99.90
2023-02-15T00:59:23.748Z,99.90
2023-02-15T01:01:50.761Z,99.90
2023-02-15T01:04:19.708Z,99.90
2023-02-15T01:06:46.682Z,99.90
2023-02-15T01:09:14.566Z,99.90
2023-02-15T01:11:41.423Z,99.90
2023-02-15T01:14:08.398Z,99.90
2023-02-15T01:16:39.010Z,99.90
2023-02-15T01:19:07.073Z,99.90
2023-02-15T01:21:35.389Z,99.90
2023-02-15T01:24:03.816Z,99.90
2023-02-15T01:26:30.723Z,99.90
2023-02-15T01:28:58.905Z,99.90
2023-02-15T01:31:25.962Z,99.90
2023-02-15T01:33:52.961Z,99.90
2023-02-15T01:36:19.849Z,99.90
2023-02-15T01:38:47.117Z,99.90
2023-02-15T01:41:28.049Z,99.90
2023-02-15T01:43:59.648Z,99.90
2023-02-15T01:46:43.822Z,99.90
2023-02-15T01:49:17.801Z,99.90
2023-02-15T01:51:49.145Z,99.90
2023-02-15T01:54:30.520Z,99.90
2023-02-15T01:57:05.304Z,99.90
2023-02-15T01:59:35.015Z,99.90
2023-02-15T02:02:05.305Z,99.90
2023-02-15T02:04:51.745Z,99.90
2023-02-15T02:07:24.549Z,99.90
2023-02-15T02:09:51.566Z,99.90
2023-02-15T02:12:21.497Z,99.90
2023-02-15T02:14:52.132Z,99.90
2023-02-15T02:18:01.988Z,99.90
2023-02-15T02:21:01.142Z,99.90
2023-02-15T02:23:55.079Z,99.90
2023-02-15T02:27:05.607Z,99.90
2023-02-15T02:30:26.747Z,99.90
2023-02-15T02:33:16.026Z,99.90
2023-02-15T02:35:54.294Z,99.90
2023-02-15T02:39:03.704Z,99.90
2023-02-15T02:42:48.467Z,99.90
2023-02-15T02:45:56.235Z,99.90
2023-02-15T02:48:30.481Z,99.90
2023-02-15T02:50:57.518Z,99.90
2023-02-15T02:53:25.276Z,99.90
2023-02-15T02:55:59.666Z,99.90
2023-02-15T02:58:46.629Z,99.90
2023-02-15T03:01:32.645Z,99.90
2023-02-15T03:04:12.417Z,99.90
2023-02-15T03:06:50.943Z,99.90
2023-02-15T03:09:43.895Z,99.90
2023-02-15T03:12:18.359Z,99.90
2023-02-15T03:14:54.026Z,99.90
2023-02-15T03:17:24.636Z,99.90
2023-02-15T03:19:56.997Z,99.90
2023-02-15T03:22:34.364Z,99.90
2023-02-15T03:25:12.009Z,99.90
2023-02-15T03:27:48.637Z,99.90
2023-02-15T03:30:19.919Z,99.90
2023-02-15T03:32:50.964Z,99.90
2023-02-15T03:35:22.470Z,99.90
2023-02-15T03:37:57.725Z,99.90
2023-02-15T03:40:53.973Z,99.90
2023-02-15T03:43:51.710Z,99.90
2023-02-15T03:46:26.406Z,99.90
2023-02-15T03:49:20.381Z,99.90
2023-02-15T03:51:51.223Z,99.90
2023-02-15T03:54:46.751Z,99.90
2023-02-15T03:57:39.356Z,99.90
2023-02-15T04:00:42.462Z,99.90
2023-02-15T04:03:57.220Z,99.90
2023-02-15T04:06:24.177Z,99.90
2023-02-15T04:09:09.863Z,99.90
2023-02-15T04:11:36.800Z,99.90
2023-02-15T04:14:23.637Z,99.90
2023-02-15T04:16:50.684Z,99.90
2023-02-15T04:19:36.186Z,99.90
2023-02-15T04:22:22.103Z,99.90
2023-02-15T04:25:07.334Z,99.90
2023-02-15T04:27:34.419Z,99.90
2023-02-15T04:30:01.366Z,99.90
2023-02-15T04:32:28.489Z,99.90
2023-02-15T04:34:55.396Z,99.90
2023-02-15T04:37:22.426Z,99.90
2023-02-15T04:39:50.669Z,99.90
2023-02-15T04:42:18.465Z,99.90
2023-02-15T04:44:45.426Z,99.90
2023-02-15T04:47:12.541Z,99.90
2023-02-15T04:49:39.492Z,99.90
2023-02-15T04:52:06.405Z,99.90
2023-02-15T04:54:33.257Z,99.90
2023-02-15T04:57:00.258Z,99.90
2023-02-15T04:59:27.304Z,99.90
2023-02-15T05:01:54.466Z,99.90
2023-02-15T05:04:21.463Z,99.90
2023-02-15T05:06:48.721Z,99.90
2023-02-15T05:09:16.452Z,99.90
2023-02-15T05:11:43.485Z,99.90
2023-02-15T05:14:49.195Z,99.90
2023-02-15T05:17:17.649Z,99.90
2023-02-15T05:19:44.512Z,99.90
2023-02-15T05:22:11.448Z,99.90
2023-02-15T05:24:56.796Z,99.90
2023-02-15T05:27:55.799Z,99.90
2023-02-15T05:30:22.777Z,99.90
2023-02-15T05:32:49.929Z,99.90
2023-02-15T05:35:18.836Z,99.90
2023-02-15T05:37:45.943Z,99.90
2023-02-15T05:40:13.274Z,99.90
2023-02-15T05:42:40.192Z,99.90
2023-02-15T05:45:07.699Z,99.90
2023-02-15T05:47:35.237Z,99.90
2023-02-15T05:50:02.229Z,99.90
2023-02-15T05:52:29.483Z,99.90
2023-02-15T05:54:56.396Z,99.90
2023-02-15T05:57:23.270Z,99.90
2023-02-15T05:59:50.104Z,99.90
2023-02-15T06:02:17.125Z,99.90
2023-02-15T06:04:43.969Z,99.90
2023-02-15T06:07:12.058Z,99.90
2023-02-15T06:09:40.361Z,99.90
2023-02-15T06:12:13.692Z,99.90
2023-02-15T06:14:40.683Z,99.90
2023-02-15T06:17:07.797Z,99.90
2023-02-15T06:19:34.788Z,99.90
2023-02-15T06:22:04.697Z,99.90
2023-02-15T06:24:31.526Z,99.90
2023-02-15T06:26:58.491Z,99.90
2023-02-15T06:29:25.454Z,99.90
2023-02-15T06:31:52.509Z,99.90
2023-02-15T06:34:19.457Z,99.90
2023-02-15T06:36:46.406Z,99.90
2023-02-15T06:39:13.294Z,99.90
2023-02-15T06:41:40.951Z,99.90
2023-02-15T06:44:08.370Z,99.90
2023-02-15T06:46:35.653Z,99.90
2023-02-15T06:49:02.708Z,99.90
2023-02-15T06:51:29.864Z,99.90
2023-02-15T06:53:56.974Z,99.90
2023-02-15T06:56:24.280Z,99.90
2023-02-15T06:58:51.167Z,99.90
2023-02-15T07:01:18.570Z,99.90
2023-02-15T07:03:45.848Z,99.90
2023-02-15T07:06:12.978Z,99.90
2023-02-15T07:12:04.324Z,99.90
2023-02-15T07:14:31.408Z,99.90
2023-02-15T07:16:58.410Z,99.90
2023-02-15T07:19:25.585Z,99.90
2023-02-15T07:21:52.525Z,99.90
2023-02-15T07:24:19.368Z,99.90
2023-02-15T07:26:46.253Z,99.90
2023-02-15T07:29:13.101Z,99.90
2023-02-15T07:31:39.993Z,99.90
2023-02-15T07:34:08.478Z,99.90
2023-02-15T07:36:35.622Z,99.90
2023-02-15T07:39:02.637Z,99.90
2023-02-15T07:41:29.649Z,99.90
2023-02-15T07:43:56.597Z,99.90
2023-02-15T07:46:23.595Z,99.90
2023-02-15T07:48:50.541Z,99.90
2023-02-15T07:51:17.477Z,99.90
2023-02-15T07:53:45.042Z,99.90
2023-02-15T07:56:15.261Z,99.90
2023-02-15T07:58:51.627Z,99.90
2023-02-15T08:01:40.746Z,99.90
2023-02-15T08:04:10.480Z,99.90
2023-02-15T08:06:38.711Z,99.90
2023-02-15T08:09:09.008Z,99.90
2023-02-15T08:11:40.508Z,99.90
2023-02-15T08:14:13.104Z,99.90
2023-02-15T08:16:48.767Z,99.90
2023-02-15T08:19:26.396Z,99.90
2023-02-15T08:21:59.941Z,99.90
2023-02-15T08:24:35.795Z,99.90
2023-02-15T08:27:06.163Z,99.90
2023-02-15T08:29:35.667Z,99.90
2023-02-15T08:32:07.564Z,99.90
2023-02-15T08:34:39.640Z,99.90
2023-02-15T08:37:07.049Z,99.90
2023-02-15T08:39:34.403Z,99.90
2023-02-15T08:42:01.628Z,99.90
2023-02-15T08:44:28.619Z,99.90
2023-02-15T08:46:55.801Z,99.90
2023-02-15T08:49:23.201Z,99.90
2023-02-15T08:51:51.347Z,99.90
2023-02-15T08:54:21.838Z,99.90
2023-02-15T08:56:49.129Z,99.30
2023-02-15T08:59:20.643Z,99.20
2023-02-15T09:01:49.799Z,98.60
2023-02-15T09:04:17.564Z,98.30
2023-02-15T09:06:48.570Z,99.10
2023-02-15T09:09:18.014Z,97.50
2023-02-15T09:11:48.502Z,96.70
2023-02-15T09:14:22.404Z,97.10
2023-02-15T09:16:51.846Z,96.00
2023-02-15T09:19:21.597Z,95.90
2023-02-15T09:21:49.379Z,95.40
2023-02-15T09:24:18.343Z,95.30
2023-02-15T09:26:48.956Z,93.00
2023-02-15T09:29:18.888Z,93.90
2023-02-15T09:31:49.902Z,93.80
2023-02-15T09:34:20.346Z,92.60
2023-02-15T09:36:48.865Z,92.60
2023-02-15T09:39:24.844Z,90.80
2023-02-15T09:42:13.717Z,92.80
2023-02-15T09:45:11.353Z,92.30
2023-02-15T09:48:22.990Z,92.90
2023-02-15T09:50:58.960Z,93.10
2023-02-15T09:54:12.135Z,91.30
2023-02-15T09:57:11.461Z,87.80
2023-02-15T09:59:49.775Z,83.00
2023-02-15T10:03:00.263Z,85.50
2023-02-15T10:05:49.134Z,82.00
2023-02-15T10:08:33.032Z,78.30
2023-02-15T10:11:40.019Z,76.90
2023-02-15T10:14:15.607Z,75.60
2023-02-15T10:18:04.619Z,76.00
2023-02-15T10:20:31.432Z,76.00
2023-02-15T10:23:17.602Z,74.20
2023-02-15T10:26:12.234Z,73.10
2023-02-15T10:28:58.101Z,70.00
2023-02-15T10:31:38.987Z,70.80
2023-02-15T10:34:19.917Z,68.90
2023-02-15T10:37:11.828Z,69.70
2023-02-15T10:39:57.116Z,70.00
2023-02-15T10:42:44.868Z,69.90
2023-02-15T10:45:20.657Z,70.90
2023-02-15T10:48:32.512Z,69.30
2023-02-15T10:51:03.036Z,70.00
2023-02-15T10:53:39.026Z,69.20
2023-02-15T10:56:57.656Z,68.30
2023-02-15T11:00:01.574Z,69.70
2023-02-15T11:03:34.295Z,69.00
2023-02-15T11:06:17.492Z,68.00
2023-02-15T11:08:53.075Z,66.30
2023-02-15T11:11:40.268Z,65.40
2023-02-15T11:14:21.649Z,64.50
2023-02-15T11:16:56.549Z,63.00
2023-02-15T11:19:36.255Z,63.20
2023-02-15T11:22:07.146Z,63.50
2023-02-15T11:24:43.922Z,62.40
2023-02-15T11:27:13.603Z,60.80
2023-02-15T11:29:55.094Z,62.30
2023-02-15T11:32:51.031Z,60.90
2023-02-15T11:35:47.984Z,61.50
2023-02-15T11:38:22.597Z,61.10
2023-02-15T11:41:08.475Z,59.50
2023-02-15T11:44:02.287Z,58.40
2023-02-15T11:46:29.700Z,59.90
2023-02-15T11:48:56.920Z,59.90
2023-02-15T11:51:24.517Z,59.70
2023-02-15T11:53:52.830Z,59.30
2023-02-15T11:56:24.705Z,60.50
2023-02-15T11:59:04.371Z,60.50
2023-02-15T12:01:47.919Z,59.80
2023-02-15T12:04:40.411Z,58.40
2023-02-15T12:07:39.146Z,58.60
2023-02-15T12:10:26.138Z,57.80
2023-02-15T12:13:20.202Z,57.00
2023-02-15T12:15:52.111Z,56.70
2023-02-15T12:18:35.059Z,56.80
2023-02-15T12:21:11.024Z,56.50
2023-02-15T12:23:51.835Z,56.60
2023-02-15T12:26:35.869Z,54.70
2023-02-15T12:29:17.459Z,55.20
2023-02-15T12:31:52.698Z,55.10
2023-02-15T12:34:24.051Z,54.70
2023-02-15T12:37:01.230Z,54.40
2023-02-15T12:39:32.351Z,53.70
2023-02-15T12:42:05.562Z,52.50
2023-02-15T12:44:36.832Z,51.90
2023-02-15T12:47:21.544Z,52.20
2023-02-15T12:50:24.090Z,51.30
2023-02-15T12:52:52.509Z,51.80
2023-02-15T12:55:24.994Z,51.60
2023-02-15T12:58:46.986Z,51.50
2023-02-15T13:01:22.822Z,52.00
2023-02-15T13:04:05.368Z,52.00
2023-02-15T13:06:36.198Z,51.20
2023-02-15T13:09:34.003Z,51.40
2023-02-15T13:12:34.348Z,51.10
2023-02-15T13:15:03.313Z,51.10
2023-02-15T13:17:35.498Z,51.20
2023-02-15T13:20:11.107Z,50.40
2023-02-15T13:22:46.608Z,50.50
2023-02-15T13:25:23.929Z,50.80
2023-02-15T13:27:57.736Z,49.60
2023-02-15T13:30:39.052Z,49.40
2023-02-15T13:33:17.324Z,49.10
2023-02-15T13:35:53.570Z,49.20
2023-02-15T13:38:41.440Z,49.70
2023-02-15T13:41:20.707Z,49.10
2023-02-15T13:44:10.763Z,49.30
2023-02-15T13:46:44.191Z,48.60
2023-02-15T13:49:35.235Z,48.90
2023-02-15T13:52:25.933Z,48.40
2023-02-15T13:55:20.218Z,48.60
2023-02-15T13:57:59.144Z,48.70
2023-02-15T14:00:49.950Z,48.30
2023-02-15T14:03:19.826Z,48.40
2023-02-15T14:05:58.421Z,48.40
2023-02-15T14:08:52.918Z,48.80
2023-02-15T14:11:58.560Z,48.30
2023-02-15T14:15:05.320Z,48.40
2023-02-15T14:18:12.120Z,48.80
2023-02-15T14:21:16.710Z,49.10
2023-02-15T14:24:15.324Z,49.40
2023-02-15T14:27:00.492Z,49.60
2023-02-15T14:29:46.311Z,50.00
2023-02-15T14:32:24.447Z,50.50
2023-02-15T14:35:02.426Z,51.60
2023-02-15T14:38:03.720Z,51.70
2023-02-15T14:41:05.069Z,52.10
2023-02-15T14:44:03.267Z,52.50
2023-02-15T14:46:59.104Z,52.40
2023-02-15T14:49:41.729Z,52.60
2023-02-15T14:52:12.373Z,53.20
2023-02-15T14:54:39.266Z,53.10
2023-02-15T14:57:09.292Z,53.50
2023-02-15T14:59:58.143Z,53.80
2023-02-15T15:02:52.839Z,54.00
2023-02-15T15:05:46.738Z,53.90
2023-02-15T15:08:32.660Z,54.10
2023-02-15T15:11:42.077Z,55.30
2023-02-15T15:14:12.115Z,54.70
2023-02-15T15:16:38.939Z,55.00
2023-02-15T15:19:11.809Z,55.60
2023-02-15T15:21:50.683Z,56.50
2023-02-15T15:24:39.517Z,57.20
2023-02-15T15:27:51.297Z,56.80
2023-02-15T15:30:24.092Z,57.20
2023-02-15T15:32:59.925Z,57.30
2023-02-15T15:36:02.096Z,57.40
2023-02-15T15:39:27.789Z,56.90
2023-02-15T15:42:14.165Z,56.70
2023-02-15T15:45:18.731Z,56.80
2023-02-15T15:47:56.138Z,57.60
2023-02-15T15:50:32.771Z,58.40
2023-02-15T15:53:03.261Z,59.20
2023-02-15T15:55:34.314Z,59.90
2023-02-15T15:58:07.844Z,60.80
2023-02-15T16:00:59.290Z,61.80
2023-02-15T16:03:29.162Z,63.60
2023-02-15T16:06:00.856Z,66.30
2023-02-15T16:08:34.640Z,67.70
2023-02-15T16:11:17.286Z,69.00
2023-02-15T16:13:45.175Z,70.60
2023-02-15T16:16:20.375Z,71.80
2023-02-15T16:18:48.512Z,73.60
2023-02-15T16:21:23.644Z,75.70
2023-02-15T16:24:49.996Z,76.80
2023-02-15T16:27:35.130Z,78.70
2023-02-15T16:30:32.918Z,81.00
2023-02-15T16:33:16.462Z,82.40
2023-02-15T16:35:59.990Z,84.10
2023-02-15T16:38:44.682Z,85.60
2023-02-15T16:41:24.470Z,87.10
2023-02-15T16:43:54.670Z,88.20
2023-02-15T16:46:47.423Z,90.30
2023-02-15T16:49:30.189Z,90.60
2023-02-15T16:52:02.670Z,91.10
2023-02-15T16:54:32.340Z,91.50
2023-02-15T16:57:00.196Z,92.00
2023-02-15T16:59:36.784Z,92.50
2023-02-15T17:02:40.232Z,93.20
2023-02-15T17:05:11.452Z,93.50
2023-02-15T17:08:18.261Z,94.00
2023-02-15T17:11:04.550Z,94.40
2023-02-15T17:13:32.091Z,95.00
2023-02-15T17:16:02.250Z,95.30
2023-02-15T17:18:49.768Z,95.50
2023-02-15T17:21:31.510Z,95.90
2023-02-15T17:24:04.911Z,96.10
2023-02-15T17:26:38.423Z,96.40
2023-02-15T17:29:37.950Z,96.50
2023-02-15T17:32:13.928Z,96.80
2023-02-15T17:35:04.169Z,97.10
2023-02-15T17:37:37.273Z,97.30
2023-02-15T17:40:22.492Z,97.50
2023-02-15T17:42:49.488Z,97.80
2023-02-15T17:45:17.682Z,98.00
2023-02-15T17:47:47.404Z,98.40
2023-02-15T17:50:26.370Z,98.40
2023-02-15T17:52:57.370Z,98.90
2023-02-15T17:55:51.441Z,99.00
2023-02-15T17:58:20.315Z,99.10
2023-02-15T18:01:15.363Z,99.30
2023-02-15T18:04:12.106Z,99.50
2023-02-15T18:07:01.888Z,99.70
2023-02-15T18:09:47.220Z,99.90
2023-02-15T18:12:23.799Z,99.90
2023-02-15T18:14:52.273Z,99.90
2023-02-15T18:17:22.464Z,99.90
2023-02-15T18:19:49.461Z,99.90
2023-02-15T18:22:19.330Z,99.90
2023-02-15T18:24:48.274Z,99.90
2023-02-15T18:27:16.760Z,99.90
2023-02-15T18:29:43.723Z,99.90
2023-02-15T18:32:18.526Z,99.90
2023-02-15T18:34:48.466Z,99.90
2023-02-15T18:37:22.755Z,99.90
2023-02-15T18:39:54.172Z,99.90
2023-02-15T18:42:38.057Z,99.90
2023-02-15T18:45:18.234Z,99.90
2023-02-15T18:47:46.622Z,99.90
2023-02-15T18:50:16.727Z,99.90
2023-02-15T18:52:47.290Z,99.90
2023-02-15T18:55:20.583Z,99.90
2023-02-15T18:57:51.087Z,99.90
2023-02-15T19:00:28.146Z,99.90
2023-02-15T19:02:56.913Z,99.90
2023-02-15T19:05:27.426Z,99.90
2023-02-15T19:07:56.021Z,99.90
2023-02-15T19:10:27.452Z,99.90
2023-02-15T19:12:56.024Z,99.90
2023-02-15T19:15:32.571Z,99.90
2023-02-15T19:17:59.674Z,99.90
2023-02-15T19:20:43.820Z,99.90
2023-02-15T19:23:23.379Z,99.90
2023-02-15T19:25:53.763Z,99.90
2023-02-15T19:28:32.342Z,99.90
2023-02-15T19:30:59.446Z,99.90
2023-02-15T19:33:26.346Z,99.90
2023-02-15T19:35:57.286Z,99.90
2023-02-15T19:38:30.805Z,99.90
2023-02-15T19:41:04.797Z,99.90
2023-02-15T19:43:31.906Z,99.90
2023-02-15T19:45:58.884Z,99.90
2023-02-15T19:48:25.876Z,99.90
2023-02-15T19:50:53.223Z,99.90
2023-02-15T19:53:26.966Z,99.90
2023-02-15T19:55:54.671Z,99.90
2023-02-15T19:58:22.328Z,99.90
2023-02-15T20:00:51.514Z,99.90
2023-02-15T20:03:18.470Z,99.90
2023-02-15T20:05:45.658Z,99.90
2023-02-15T20:08:22.711Z,99.90
2023-02-15T20:10:49.920Z,99.90
2023-02-15T20:13:19.701Z,99.90
2023-02-15T20:15:47.954Z,99.90
2023-02-15T20:18:15.026Z,99.90
2023-02-15T20:20:50.431Z,99.90
2023-02-15T20:23:29.038Z,99.90
2023-02-15T20:26:00.520Z,99.90
2023-02-15T20:28:31.768Z,99.90
2023-02-15T20:30:59.703Z,99.90
2023-02-15T20:33:26.748Z,99.90
2023-02-15T20:35:53.956Z,99.90
2023-02-15T20:38:28.107Z,99.90
2023-02-15T20:41:16.935Z,99.90
2023-02-15T20:43:43.870Z,99.90
2023-02-15T20:47:02.856Z,99.90
2023-02-15T20:49:29.964Z,99.90
2023-02-15T20:51:58.410Z,99.90
2023-02-15T20:54:41.395Z,99.90
2023-02-15T20:57:12.859Z,99.90
2023-02-15T20:59:40.977Z,99.90
2023-02-15T21:02:22.906Z,99.90
2023-02-15T21:04:50.617Z,99.90
2023-02-15T21:07:22.291Z,99.90
2023-02-15T21:09:49.575Z,99.90
2023-02-15T21:12:19.389Z,99.90
2023-02-15T21:14:46.463Z,99.90
2023-02-15T21:17:16.164Z,99.90
2023-02-15T21:19:43.667Z,99.90
2023-02-15T21:22:16.601Z,99.90
2023-02-15T21:24:52.366Z,99.90
2023-02-15T21:27:19.492Z,99.90
2023-02-15T21:29:46.557Z,99.90
2023-02-15T21:32:13.652Z,99.90
2023-02-15T21:34:40.724Z,99.90
2023-02-15T21:37:32.891Z,99.90
2023-02-15T21:40:00.397Z,99.90
2023-02-15T21:42:47.396Z,99.90
2023-02-15T21:45:37.535Z,99.90
2023-02-15T21:48:05.007Z,99.90
2023-02-15T21:50:50.631Z,99.90
2023-02-15T21:53:31.607Z,99.90
2023-02-15T21:56:01.869Z,99.90
2023-02-15T21:58:33.239Z,99.90
2023-02-15T22:01:02.846Z,99.90
2023-02-15T22:03:38.280Z,99.90
2023-02-15T22:06:06.065Z,99.90
2023-02-15T22:08:33.932Z,99.90
2023-02-15T22:11:00.991Z,99.90
2023-02-15T22:13:33.902Z,99.90
2023-02-15T22:16:02.367Z,99.90
2023-02-15T22:18:34.036Z,99.90
2023-02-15T22:21:02.718Z,99.90
2023-02-15T22:23:30.166Z,99.90
2023-02-15T22:26:04.013Z,99.90
2023-02-15T22:28:37.984Z,99.90
2023-02-15T22:31:12.322Z,99.90
2023-02-15T22:33:39.905Z,99.90
2023-02-15T22:36:14.265Z,99.90
2023-02-15T22:38:41.302Z,99.90
2023-02-15T22:41:10.595Z,99.90
2023-02-15T22:43:43.648Z,99.90
2023-02-15T22:46:23.794Z,99.90
2023-02-15T22:48:52.121Z,99.90
2023-02-15T22:51:23.610Z,99.90
2023-02-15T22:53:54.114Z,99.90
2023-02-15T22:56:52.595Z,99.90
2023-02-15T22:59:29.530Z,99.90
2023-02-15T23:01:57.661Z,99.90
2023-02-15T23:04:28.821Z,99.90
2023-02-15T23:06:59.306Z,99.90
2023-02-15T23:09:26.435Z,99.90
2023-02-15T23:11:53.964Z,99.90
2023-02-15T23:14:34.916Z,99.90
2023-02-15T23:17:01.942Z,99.90
2023-02-15T23:19:29.304Z,99.90
2023-02-15T23:21:56.405Z,99.90
2023-02-15T23:24:31.266Z,99.90
2023-02-15T23:27:18.379Z,99.90
2023-02-15T23:29:45.314Z,99.90
2023-02-15T23:32:16.058Z,99.90
2023-02-15T23:34:43.662Z,99.90
2023-02-15T23:37:13.411Z,99.90
2023-02-15T23:39:58.737Z,99.90
2023-02-15T23:42:31.897Z,99.90
2023-02-15T23:44:58.991Z,99.90
2023-02-15T23:47:52.795Z,99.90
2023-02-15T23:50:20.706Z,99.90
2023-02-15T23:52:47.890Z,99.90
2023-02-15T23:55:15.673Z,99.90
2023-02-15T23:57:44.577Z,99.90
